Preview of NWS' New Version of Forecast
This preview is not operational and should not be used for support decisions.

Terminal Aerodrome Forecast (TAF)

Issued by National Weather Service (NWS)

                            
000
FTUS42 KCAE 130854 AAA
TAFOGB
TAF AMD
KOGB 130854Z 1309/1406 00000KT P6SM FEW250
     FM131000 00000KT 4SM BR SKC
     FM131300 VRB03KT P6SM FEW250
     FM131700 10006KT P6SM SCT040 SCT250
     FM140100 VRB03KT P6SM BKN250=